This is the latest recevied weather packets stored in our database for station/object N1JOV-7. If no packets are shown the sender has not sent any weather packets the latest 10 day(s).
| Time | Temp. | Humidity | Pressure | Rain* | Wind** | Luminosity | Snow |
|---|---|---|---|---|---|---|---|
| 1788302461 | 19.44° C | 85% | 1019.7 hPa | 0 mm | - | - | - |
| 1788301861 | 20° C | 84% | 1019.6 hPa | 0 mm | - | - | - |
| 1788301261 | 20° C | 82% | 1019.6 hPa | 0 mm | - | - | - |
| 1788300661 | 21.11° C | 81% | 1019.5 hPa | 0 mm | - | - | - |
| 1788300061 | 21.11° C | 80% | 1019.4 hPa | 0 mm | - | - | - |
| 1788299462 | 20.56° C | 81% | 1019.4 hPa | 0 mm | - | - | - |
| 1788298862 | 21.11° C | 80% | 1019.5 hPa | 0 mm | - | - | - |
| 1788298262 | 21.67° C | 78% | 1019 hPa | 0 mm | - | - | - |
| 1788297678 | 22.22° C | 76% | 1019 hPa | 0 mm | - | - | - |
| 1788297062 | 22.78° C | 75% | 1019.1 hPa | 0 mm | - | - | - |
| 1788296461 | 21.67° C | 77% | 1018.9 hPa | 0 mm | - | - | - |
| 1788295861 | 22.22° C | 77% | 1019 hPa | 0 mm | - | - | - |
| 1788295261 | 22.78° C | 74% | 1018.7 hPa | 0 mm | - | - | - |
| 1788294661 | 23.33° C | 72% | 1018.5 hPa | 0 mm | - | - | - |
| 1788294061 | 24.44° C | 70% | 1018.5 hPa | 0 mm | - | - | - |
| 1788293464 | 23.33° C | 71% | 1018.4 hPa | 0 mm | - | - | - |
| 1788292861 | 23.89° C | 70% | 1018.5 hPa | 0 mm | - | - | - |
| 1788292262 | 23.89° C | 71% | 1018.4 hPa | 0 mm | - | - | - |
| 1788291662 | 22.78° C | 73% | 1018.6 hPa | 0 mm | - | - | - |
| 1788291062 | 23.89° C | 70% | 1018.6 hPa | 0 mm | - | - | - |
| 1788290462 | 22.78° C | 71% | 1018.8 hPa | 0 mm | - | - | - |
| 1788289862 | 23.89° C | 70% | 1018.7 hPa | 0 mm | - | - | - |
| 1788289261 | 23.33° C | 69% | 1018.6 hPa | 0 mm | - | - | - |
| 1788288661 | 24.44° C | 68% | 1018.5 hPa | 0 mm | - | - | - |
| 1788288061 | 24.44° C | 67% | 1018.5 hPa | 0 mm | - | - | - |
* Rain latest hour (hover to see other rain measurements)
** Current wind speed in m/s (hover to see current wind gust speed)